Time;durP1;ratioP1;P1;durP2;ratioP2;P2;SDS_P1;SDS_P2;PMS_P1;PMS_P2;Temp;Humidity;BMP_temperature;BMP_pressure;BME280_temperature;BME280_humidity;BME280_pressure;Samples;Min_cycle;Max_cycle;Signal;HPM_P1;HPM_P2
2023/11/01 00:00:05;;;;;;;7.07;2.40;;;10.00;99.90;;;;;;4221126;27;20218;-77
2023/11/01 00:02:07;;;;;;;7.93;2.83;;;10.00;99.90;;;;;;4225391;28;20273;-77
2023/11/01 00:04:09;;;;;;;10.30;3.20;;;10.10;99.90;;;;;;4222593;28;20293;-77
2023/11/01 00:06:11;;;;;;;8.87;2.90;;;10.00;99.90;;;;;;4219963;28;20272;-77
2023/11/01 00:08:15;;;;;;;8.90;3.27;;;10.00;99.90;;;;;;4225329;28;20215;-77
2023/11/01 00:10:16;;;;;;;5.67;2.60;;;10.00;99.90;;;;;;4221699;28;20682;-77
2023/11/01 00:12:18;;;;;;;8.30;3.23;;;10.00;99.90;;;;;;4221933;28;20208;-77
2023/11/01 00:14:20;;;;;;;9.23;3.00;;;10.00;99.90;;;;;;4226059;28;20227;-77
2023/11/01 00:16:21;;;;;;;7.93;2.80;;;10.00;99.90;;;;;;4223221;27;20546;-77
2023/11/01 00:18:23;;;;;;;9.97;3.20;;;10.00;99.90;;;;;;4223879;28;20212;-77
2023/11/01 00:20:24;;;;;;;6.70;2.60;;;10.00;99.90;;;;;;4225416;28;20220;-77
2023/11/01 00:22:26;;;;;;;10.20;3.10;;;10.00;99.90;;;;;;4230126;27;20211;-77
2023/11/01 00:24:29;;;;;;;9.63;3.33;;;10.00;99.90;;;;;;4230766;27;20732;-77
2023/11/01 00:26:30;;;;;;;7.13;3.10;;;10.00;99.90;;;;;;4226963;27;20205;-77
2023/11/01 00:28:32;;;;;;;7.10;3.10;;;10.00;99.90;;;;;;4225467;28;20647;-77
2023/11/01 00:30:34;;;;;;;10.37;3.57;;;10.00;99.90;;;;;;4223059;28;20200;-77
2023/11/01 00:32:35;;;;;;;8.23;2.93;;;10.00;99.90;;;;;;4229923;27;20261;-77
2023/11/01 00:34:37;;;;;;;8.30;2.90;;;10.00;99.90;;;;;;4226182;27;20272;-77
2023/11/01 00:36:39;;;;;;;7.47;2.70;;;10.10;99.90;;;;;;4223789;27;20296;-77
2023/11/01 00:38:41;;;;;;;7.63;2.73;;;10.10;99.90;;;;;;4229516;27;20220;-77
2023/11/01 00:40:45;;;;;;;6.63;2.50;;;10.10;99.90;;;;;;4229692;27;20593;-77
2023/11/01 00:42:47;;;;;;;5.33;2.13;;;10.00;99.90;;;;;;4224984;28;20203;-77
2023/11/01 00:44:48;;;;;;;6.10;1.90;;;10.00;99.90;;;;;;4226667;27;20667;-77
2023/11/01 00:46:49;;;;;;;5.17;2.67;;;10.10;99.90;;;;;;4233727;27;20196;-77
2023/11/01 00:48:52;;;;;;;5.57;2.00;;;10.10;99.90;;;;;;4230542;27;20199;-77
2023/11/01 00:50:54;;;;;;;4.33;1.60;;;10.10;99.90;;;;;;4235457;27;20208;-77
2023/11/01 00:52:56;;;;;;;6.43;2.03;;;10.00;99.90;;;;;;4230019;27;20204;-77
2023/11/01 00:54:58;;;;;;;4.17;1.63;;;10.00;99.90;;;;;;4222043;28;20222;-77
2023/11/01 00:57:01;;;;;;;5.23;1.80;;;10.10;99.90;;;;;;4226474;27;20290;-77
2023/11/01 00:59:03;;;;;;;4.33;1.97;;;10.00;99.90;;;;;;4223019;27;20216;-77
2023/11/01 01:01:05;;;;;;;6.17;1.50;;;10.10;99.90;;;;;;4222387;28;20209;-77
2023/11/01 01:03:10;;;;;;;5.83;2.00;;;10.10;99.90;;;;;;4220781;28;20235;-77
2023/11/01 01:05:11;;;;;;;9.57;2.23;;;10.10;99.90;;;;;;4228033;27;20242;-77
2023/11/01 01:07:13;;;;;;;5.30;1.53;;;10.00;99.90;;;;;;4231870;27;20199;-77
2023/11/01 01:09:15;;;;;;;8.53;1.60;;;10.00;99.90;;;;;;4227897;28;20327;-77
2023/11/01 01:11:19;;;;;;;7.23;1.80;;;10.00;99.90;;;;;;4222858;28;20768;-77
2023/11/01 01:13:22;;;;;;;3.33;1.50;;;10.00;99.90;;;;;;4228382;27;20234;-77
2023/11/01 01:15:23;;;;;;;2.50;1.50;;;9.90;99.90;;;;;;4226112;28;20287;-77
2023/11/01 01:17:25;;;;;;;4.63;1.90;;;9.90;99.90;;;;;;4228333;28;20773;-77
2023/11/01 01:19:27;;;;;;;4.87;1.70;;;9.90;99.90;;;;;;4229179;27;20201;-77
2023/11/01 01:21:29;;;;;;;5.27;1.80;;;9.80;99.90;;;;;;4227450;27;20238;-77
2023/11/01 01:23:31;;;;;;;5.73;1.83;;;9.80;99.90;;;;;;4228249;27;20235;-77
2023/11/01 01:25:33;;;;;;;5.37;1.83;;;9.80;99.90;;;;;;4229362;27;20204;-77
2023/11/01 01:27:34;;;;;;;3.73;1.97;;;9.80;99.90;;;;;;4231586;27;20211;-78
2023/11/01 01:29:37;;;;;;;6.40;1.80;;;9.80;99.90;;;;;;4230677;27;20200;-77
2023/11/01 01:31:38;;;;;;;2.90;1.83;;;9.70;99.90;;;;;;4220833;28;20213;-77
2023/11/01 01:33:44;;;;;;;4.80;1.90;;;9.70;99.90;;;;;;4229707;27;20223;-77
2023/11/01 01:35:46;;;;;;;4.83;2.10;;;9.70;99.90;;;;;;4227994;28;20200;-77
2023/11/01 01:37:47;;;;;;;9.63;2.50;;;9.60;99.90;;;;;;4226258;28;20625;-77
2023/11/01 01:39:49;;;;;;;4.17;2.10;;;9.60;99.90;;;;;;4224441;28;20200;-77
2023/11/01 01:41:51;;;;;;;6.23;2.13;;;9.60;99.90;;;;;;4223443;27;20221;-78
2023/11/01 01:43:53;;;;;;;9.60;2.40;;;9.60;99.90;;;;;;4226183;27;20764;-78
2023/11/01 01:46:04;;;;;;;3.20;1.90;;;9.50;99.90;;;;;;4226066;28;20222;-77
2023/11/01 01:48:06;;;;;;;6.47;2.13;;;9.60;99.90;;;;;;4229916;28;20232;-78
2023/11/01 01:50:09;;;;;;;5.40;2.00;;;9.60;99.90;;;;;;4230900;27;20222;-78
2023/11/01 01:52:14;;;;;;;5.50;2.43;;;9.60;99.90;;;;;;4227815;27;20208;-78
2023/11/01 01:54:16;;;;;;;4.27;1.70;;;9.50;99.90;;;;;;4225472;27;20231;-78
2023/11/01 01:56:19;;;;;;;3.97;1.87;;;9.50;99.90;;;;;;4224861;28;20200;-78
2023/11/01 01:58:22;;;;;;;5.60;2.10;;;9.60;99.90;;;;;;4229336;27;20207;-78
2023/11/01 02:00:27;;;;;;;5.43;1.90;;;9.50;99.90;;;;;;4225428;27;20273;-77
2023/11/01 02:02:31;;;;;;;4.80;2.07;;;9.70;99.90;;;;;;4230919;27;20280;-77
2023/11/01 02:04:33;;;;;;;4.17;1.73;;;9.60;99.90;;;;;;4218321;27;20610;-78
2023/11/01 02:06:34;;;;;;;2.80;1.53;;;9.60;99.90;;;;;;4227522;28;20215;-78
2023/11/01 02:08:37;;;;;;;3.30;1.80;;;9.60;99.90;;;;;;4234469;27;20304;-78
2023/11/01 02:10:38;;;;;;;3.80;1.30;;;9.50;99.90;;;;;;4225280;28;20631;-77
2023/11/01 02:12:39;;;;;;;3.20;1.33;;;9.50;99.90;;;;;;4221078;28;20213;-77
2023/11/01 02:14:41;;;;;;;6.27;1.40;;;9.50;99.90;;;;;;4222748;28;20236;-77
2023/11/01 02:16:42;;;;;;;2.73;1.13;;;9.50;99.90;;;;;;4224368;28;20606;-77
2023/11/01 02:18:46;;;;;;;2.10;1.10;;;9.60;99.90;;;;;;4219969;28;20224;-78
2023/11/01 02:20:51;;;;;;;4.13;1.30;;;9.50;99.90;;;;;;4222144;28;20270;-78
2023/11/01 02:22:55;;;;;;;3.97;1.30;;;9.50;99.90;;;;;;4223752;27;20710;-77
2023/11/01 02:24:59;;;;;;;2.83;1.37;;;9.50;99.90;;;;;;4227339;28;20234;-78
2023/11/01 02:27:02;;;;;;;2.43;1.53;;;9.50;99.90;;;;;;4224964;28;20286;-78
2023/11/01 02:29:04;;;;;;;4.83;1.07;;;9.60;99.90;;;;;;4221756;27;20576;-78
2023/11/01 02:31:07;;;;;;;5.40;1.20;;;9.60;99.90;;;;;;4218274;28;20219;-78
2023/11/01 02:33:09;;;;;;;1.73;1.10;;;9.60;99.90;;;;;;4220810;28;20265;-78
2023/11/01 02:35:11;;;;;;;3.87;1.23;;;9.70;99.90;;;;;;4227071;27;20256;-77
2023/11/01 02:37:13;;;;;;;2.17;1.20;;;9.70;99.90;;;;;;4227722;27;20241;-77
2023/11/01 02:39:14;;;;;;;4.20;1.80;;;9.70;99.90;;;;;;4228437;27;20333;-77
2023/11/01 02:41:18;;;;;;;4.73;1.90;;;9.80;99.90;;;;;;4220833;27;20796;-77
2023/11/01 02:43:20;;;;;;;6.50;2.43;;;9.80;99.90;;;;;;4221980;28;20240;-77
2023/11/01 02:45:22;;;;;;;6.67;2.80;;;9.80;99.90;;;;;;4222115;28;20703;-77
2023/11/01 02:47:24;;;;;;;8.00;3.57;;;9.80;99.90;;;;;;4223067;27;20223;-78
2023/11/01 02:49:26;;;;;;;10.70;4.73;;;9.80;99.90;;;;;;4225132;28;20671;-79
2023/11/01 02:51:26;;;;;;;12.90;4.60;;;9.80;99.90;;;;;;4220126;28;20215;-78
2023/11/01 02:53:28;;;;;;;10.20;4.63;;;9.80;99.90;;;;;;4231197;27;20714;-78
2023/11/01 02:55:30;;;;;;;8.43;4.13;;;9.80;99.90;;;;;;4225443;27;20311;-77
2023/11/01 02:57:34;;;;;;;9.70;3.90;;;10.00;99.90;;;;;;4223904;27;20212;-77
2023/11/01 02:59:36;;;;;;;10.43;3.73;;;9.80;99.90;;;;;;4221695;27;20216;-76
2023/11/01 03:01:38;;;;;;;8.10;3.57;;;9.80;99.90;;;;;;4219101;28;20203;-76
2023/11/01 03:03:39;;;;;;;7.30;3.47;;;9.70;99.90;;;;;;4221435;28;20252;-76
2023/11/01 03:05:41;;;;;;;6.63;3.17;;;9.70;99.90;;;;;;4221768;27;20239;-76
2023/11/01 03:07:45;;;;;;;7.50;3.13;;;9.70;99.90;;;;;;4224466;28;20272;-77
2023/11/01 03:09:47;;;;;;;9.87;3.33;;;9.70;99.90;;;;;;4221007;28;20208;-76
2023/11/01 03:11:49;;;;;;;8.10;2.90;;;9.70;99.90;;;;;;4221734;28;20731;-76
2023/11/01 03:13:52;;;;;;;6.53;2.80;;;9.70;99.90;;;;;;4222730;28;20269;-76
2023/11/01 03:15:54;;;;;;;6.63;2.67;;;9.60;99.90;;;;;;4223120;28;20227;-76
2023/11/01 03:17:57;;;;;;;5.30;2.80;;;9.70;99.90;;;;;;4221102;28;20713;-76
2023/11/01 03:19:59;;;;;;;4.63;2.23;;;9.70;99.90;;;;;;4222443;28;20216;-76
2023/11/01 03:22:02;;;;;;;5.30;2.50;;;9.60;99.90;;;;;;4222188;28;20781;-76
2023/11/01 03:24:04;;;;;;;3.77;2.00;;;9.70;99.90;;;;;;4220696;27;20245;-76
2023/11/01 03:26:06;;;;;;;4.60;2.10;;;9.70;99.90;;;;;;4222360;27;20562;-77
2023/11/01 03:28:08;;;;;;;7.33;2.60;;;9.70;99.90;;;;;;4222131;28;20873;-76
2023/11/01 03:30:12;;;;;;;3.30;1.60;;;9.70;99.90;;;;;;4221857;28;20202;-76
2023/11/01 03:32:13;;;;;;;4.77;1.60;;;9.70;99.90;;;;;;4222301;27;20228;-76
2023/11/01 03:34:15;;;;;;;6.97;2.03;;;9.70;99.90;;;;;;4222808;28;20232;-76
2023/11/01 03:36:17;;;;;;;5.93;2.30;;;9.80;99.90;;;;;;4226487;28;20232;-76
2023/11/01 03:38:19;;;;;;;4.83;2.10;;;9.70;99.90;;;;;;4226671;28;20268;-76
2023/11/01 03:40:21;;;;;;;3.53;1.90;;;9.80;99.90;;;;;;4221485;28;20596;-76
2023/11/01 03:42:23;;;;;;;5.33;2.37;;;9.80;99.90;;;;;;4221248;28;20243;-77
2023/11/01 03:44:25;;;;;;;4.47;2.60;;;9.70;99.90;;;;;;4221332;28;20284;-76
2023/11/01 03:46:28;;;;;;;2.37;1.60;;;9.80;99.90;;;;;;4222479;28;20268;-77
2023/11/01 03:48:29;;;;;;;4.40;1.80;;;9.80;99.90;;;;;;4222142;28;20204;-76
2023/11/01 03:50:31;;;;;;;4.50;1.80;;;9.80;99.90;;;;;;4220698;28;20272;-76
2023/11/01 03:52:33;;;;;;;3.00;1.70;;;9.90;99.90;;;;;;4221193;27;20658;-76
2023/11/01 03:54:35;;;;;;;3.33;1.63;;;9.90;99.90;;;;;;4220910;28;20269;-76
2023/11/01 03:56:43;;;;;;;4.03;1.60;;;9.90;99.90;;;;;;4222775;28;20258;-76
2023/11/01 03:58:45;;;;;;;3.57;1.40;;;9.90;99.90;;;;;;4222465;28;20206;-76
2023/11/01 04:00:47;;;;;;;4.37;1.40;;;9.80;99.90;;;;;;4224671;28;20204;-76
2023/11/01 04:02:51;;;;;;;4.97;1.40;;;9.90;99.90;;;;;;4219221;28;20212;-76
2023/11/01 04:04:53;;;;;;;2.63;1.33;;;9.90;99.90;;;;;;4221831;28;20199;-76
2023/11/01 04:06:54;;;;;;;3.07;1.30;;;9.90;99.90;;;;;;4222078;27;20287;-76
2023/11/01 04:08:56;;;;;;;4.23;1.60;;;9.90;99.90;;;;;;4222510;28;20208;-76
2023/11/01 04:10:57;;;;;;;1.87;1.40;;;9.90;99.90;;;;;;4219792;28;20248;-76
2023/11/01 04:12:59;;;;;;;1.53;1.43;;;9.90;99.90;;;;;;4221940;28;20211;-76
2023/11/01 04:15:00;;;;;;;3.00;1.30;;;9.90;99.90;;;;;;4224097;28;20231;-76
2023/11/01 04:17:02;;;;;;;9.70;1.50;;;9.90;99.90;;;;;;4220675;28;20200;-77
2023/11/01 04:19:06;;;;;;;4.37;1.27;;;10.00;99.90;;;;;;4225864;28;20251;-77
2023/11/01 04:21:08;;;;;;;2.47;1.37;;;9.90;99.90;;;;;;4223472;27;20216;-78
2023/11/01 04:23:10;;;;;;;1.90;1.30;;;9.90;99.90;;;;;;4220676;28;20220;-76
2023/11/01 04:25:12;;;;;;;1.30;1.10;;;9.90;99.90;;;;;;4221899;28;20211;-77
2023/11/01 04:27:14;;;;;;;4.67;1.47;;;10.00;99.90;;;;;;4219135;28;20589;-76
2023/11/01 04:29:16;;;;;;;2.13;1.40;;;9.90;99.90;;;;;;4221407;28;20698;-76
2023/11/01 04:31:18;;;;;;;6.10;1.67;;;9.90;99.90;;;;;;4222801;28;20302;-76
2023/11/01 04:33:20;;;;;;;4.10;1.37;;;9.90;99.90;;;;;;4220585;28;20224;-76
2023/11/01 04:35:23;;;;;;;3.67;1.40;;;9.90;99.90;;;;;;4223545;28;20257;-76
2023/11/01 04:37:26;;;;;;;6.47;1.40;;;9.90;99.90;;;;;;4223153;28;20211;-76
2023/11/01 04:39:28;;;;;;;2.63;1.50;;;10.00;99.90;;;;;;4216676;28;20213;-76
2023/11/01 04:41:29;;;;;;;3.47;1.30;;;9.90;99.90;;;;;;4219913;28;20212;-76
2023/11/01 04:43:31;;;;;;;3.33;1.10;;;10.00;99.90;;;;;;4220528;28;20228;-76
2023/11/01 04:45:33;;;;;;;1.90;1.23;;;10.00;99.90;;;;;;4225339;28;20616;-76
2023/11/01 04:47:35;;;;;;;2.87;1.50;;;10.00;99.90;;;;;;4222556;27;20252;-76
2023/11/01 04:49:38;;;;;;;4.77;0.93;;;10.00;99.90;;;;;;4223719;28;20694;-76
2023/11/01 04:51:41;;;;;;;2.80;1.30;;;10.00;99.90;;;;;;4220983;28;20211;-76
2023/11/01 04:53:43;;;;;;;2.00;1.10;;;10.00;99.90;;;;;;4223512;27;20317;-76
2023/11/01 04:55:45;;;;;;;2.87;1.50;;;10.10;99.90;;;;;;4217424;28;20272;-76
2023/11/01 04:57:47;;;;;;;2.70;1.40;;;10.10;99.90;;;;;;4223846;28;20262;-77
2023/11/01 04:59:49;;;;;;;2.57;1.30;;;10.10;99.90;;;;;;4223347;28;20703;-77
2023/11/01 05:01:50;;;;;;;5.07;1.30;;;10.10;99.90;;;;;;4233241;28;20207;-77
2023/11/01 05:03:52;;;;;;;2.70;1.30;;;10.10;99.90;;;;;;4226296;28;20760;-77
2023/11/01 05:05:54;;;;;;;3.67;1.23;;;10.10;99.90;;;;;;4220174;28;20211;-77
2023/11/01 05:07:58;;;;;;;5.43;1.20;;;10.10;99.90;;;;;;4227389;27;20204;-77
2023/11/01 05:10:00;;;;;;;3.97;1.10;;;10.20;99.90;;;;;;4219954;27;20250;-76
2023/11/01 05:12:02;;;;;;;2.30;1.20;;;10.10;99.90;;;;;;4221955;28;20277;-76
2023/11/01 05:14:04;;;;;;;1.70;1.10;;;10.10;99.90;;;;;;4227062;27;20224;-76
2023/11/01 05:16:06;;;;;;;1.30;1.07;;;10.10;99.90;;;;;;4228559;28;20223;-76
2023/11/01 05:18:08;;;;;;;2.30;1.10;;;10.10;99.90;;;;;;4228975;27;20220;-76
2023/11/01 05:20:11;;;;;;;1.60;1.03;;;10.10;99.90;;;;;;4225860;28;20268;-76
2023/11/01 05:22:13;;;;;;;2.37;1.37;;;10.10;99.90;;;;;;4223620;27;20219;-76
2023/11/01 05:24:16;;;;;;;2.43;1.50;;;10.10;99.90;;;;;;4222515;27;20236;-76
2023/11/01 05:26:18;;;;;;;4.60;1.20;;;10.00;99.90;;;;;;4226409;27;20204;-76
2023/11/01 05:28:27;;;;;;;3.07;1.33;;;10.00;99.90;;;;;;4224727;27;20208;-77
2023/11/01 05:30:29;;;;;;;7.30;3.37;;;10.00;99.90;;;;;;4227477;27;20242;-77
2023/11/01 05:32:30;;;;;;;10.37;4.47;;;10.00;99.90;;;;;;4226120;28;20205;-76
2023/11/01 05:34:32;;;;;;;5.20;2.30;;;9.90;99.90;;;;;;4225870;28;20220;-76
2023/11/01 05:36:34;;;;;;;2.00;1.30;;;9.90;99.90;;;;;;4229378;27;20223;-76
2023/11/01 05:38:36;;;;;;;2.57;1.50;;;10.00;99.90;;;;;;4228798;28;20219;-76
2023/11/01 05:40:39;;;;;;;1.27;1.00;;;9.90;99.90;;;;;;4227471;28;20205;-76
2023/11/01 05:42:43;;;;;;;1.67;1.10;;;9.90;99.90;;;;;;4230784;27;20205;-76
2023/11/01 05:44:45;;;;;;;2.20;1.03;;;9.90;99.90;;;;;;4229734;27;20216;-76
2023/11/01 05:46:47;;;;;;;1.60;1.10;;;9.80;99.90;;;;;;4220134;28;20218;-76
2023/11/01 05:48:49;;;;;;;4.70;1.37;;;9.80;99.90;;;;;;4222602;28;20203;-76
2023/11/01 05:50:51;;;;;;;3.53;1.40;;;9.80;99.90;;;;;;4223201;28;20746;-76
2023/11/01 05:52:55;;;;;;;3.30;1.20;;;9.80;99.90;;;;;;4222912;27;20211;-76
2023/11/01 05:54:57;;;;;;;2.80;1.27;;;9.70;99.90;;;;;;4224657;27;20269;-76
2023/11/01 05:57:01;;;;;;;5.53;1.50;;;9.70;99.90;;;;;;4223892;28;20228;-76
2023/11/01 05:59:03;;;;;;;4.63;1.13;;;9.70;99.90;;;;;;4224219;27;20737;-76
2023/11/01 06:01:07;;;;;;;2.77;1.20;;;9.60;99.90;;;;;;4223698;27;20219;-76
2023/11/01 06:03:08;;;;;;;1.63;0.97;;;9.70;99.90;;;;;;4222418;27;20250;-76
2023/11/01 06:05:10;;;;;;;4.50;1.30;;;9.60;99.90;;;;;;4222114;27;20215;-76
2023/11/01 06:07:12;;;;;;;4.13;1.27;;;9.60;99.90;;;;;;4224231;27;20204;-76
2023/11/01 06:09:18;;;;;;;3.40;1.20;;;9.60;99.90;;;;;;4221836;27;20250;-76
2023/11/01 06:11:20;;;;;;;2.20;1.17;;;9.60;99.90;;;;;;4224006;27;20238;-76
2023/11/01 06:13:23;;;;;;;3.50;1.50;;;9.60;99.90;;;;;;4222769;27;20239;-76
2023/11/01 06:15:25;;;;;;;2.60;1.30;;;9.60;99.90;;;;;;4223295;27;20872;-76
2023/11/01 06:17:27;;;;;;;1.57;1.10;;;9.60;99.90;;;;;;4221696;27;20253;-76
2023/11/01 06:19:31;;;;;;;5.93;1.50;;;9.70;99.90;;;;;;4226784;27;20279;-76
2023/11/01 06:21:33;;;;;;;6.97;1.33;;;9.60;99.90;;;;;;4223248;27;20299;-76
2023/11/01 06:23:36;;;;;;;2.77;1.40;;;9.60;99.90;;;;;;4223152;28;20277;-76
2023/11/01 06:25:37;;;;;;;3.87;1.40;;;9.60;99.90;;;;;;4220718;28;20206;-76
2023/11/01 06:27:39;;;;;;;2.27;1.20;;;9.70;99.90;;;;;;4219228;28;20200;-76
2023/11/01 06:29:43;;;;;;;1.70;1.13;;;9.70;99.90;;;;;;4223097;28;20679;-76
2023/11/01 06:31:45;;;;;;;2.23;1.30;;;9.60;99.90;;;;;;4225367;28;20211;-76
2023/11/01 06:33:47;;;;;;;3.43;1.20;;;9.60;99.90;;;;;;4223110;28;20234;-76
2023/11/01 06:35:49;;;;;;;4.73;1.30;;;9.70;99.90;;;;;;4223868;28;20251;-76
2023/11/01 06:37:49;;;;;;;4.93;1.30;;;9.70;99.90;;;;;;4222262;28;20619;-76
2023/11/01 06:39:51;;;;;;;6.20;1.30;;;9.70;99.90;;;;;;4223225;28;20249;-76
2023/11/01 06:41:53;;;;;;;3.50;1.10;;;9.80;99.90;;;;;;4225433;27;20289;-76
2023/11/01 06:43:55;;;;;;;2.27;1.30;;;9.80;99.90;;;;;;4223590;28;20259;-76
2023/11/01 06:45:58;;;;;;;2.20;1.40;;;9.90;99.90;;;;;;4226659;27;20256;-79
2023/11/01 06:48:00;;;;;;;2.20;1.40;;;10.00;99.90;;;;;;4234721;27;20206;-82
2023/11/01 06:50:02;;;;;;;1.90;1.40;;;10.00;99.90;;;;;;4233127;27;20291;-77
2023/11/01 06:52:04;;;;;;;3.97;1.40;;;10.00;99.90;;;;;;4225111;27;20223;-78
2023/11/01 06:54:06;;;;;;;6.83;1.70;;;10.10;99.90;;;;;;4228520;28;20232;-75
2023/11/01 06:56:08;;;;;;;4.40;2.27;;;10.10;99.90;;;;;;4222983;27;20315;-76
2023/11/01 06:58:10;;;;;;;6.90;3.27;;;10.10;99.90;;;;;;4224916;27;20613;-77
2023/11/01 07:00:14;;;;;;;9.27;2.20;;;10.20;99.90;;;;;;4224300;27;20216;-76
2023/11/01 07:02:17;;;;;;;3.03;1.43;;;10.10;99.90;;;;;;4225273;27;20290;-76
2023/11/01 07:04:19;;;;;;;3.97;1.50;;;10.20;99.90;;;;;;4229642;27;20279;-76
2023/11/01 07:06:21;;;;;;;3.23;1.30;;;10.30;99.90;;;;;;4219401;27;20204;-76
2023/11/01 07:08:23;;;;;;;7.13;1.50;;;10.30;99.90;;;;;;4226954;27;20261;-76
2023/11/01 07:10:25;;;;;;;2.87;1.50;;;10.40;99.90;;;;;;4224437;27;20203;-76
2023/11/01 07:12:26;;;;;;;2.13;1.20;;;10.40;99.90;;;;;;4227720;27;20211;-76
2023/11/01 07:14:28;;;;;;;6.10;1.53;;;10.40;99.90;;;;;;4230862;27;20243;-76
2023/11/01 07:16:29;;;;;;;2.33;1.20;;;10.50;99.90;;;;;;4227340;27;20219;-76
2023/11/01 07:18:32;;;;;;;5.50;1.43;;;10.50;99.90;;;;;;4231606;27;20276;-77
2023/11/01 07:20:34;;;;;;;1.43;1.20;;;10.50;99.90;;;;;;4218070;28;20265;-77
2023/11/01 07:22:36;;;;;;;2.57;1.13;;;10.60;99.90;;;;;;4227036;27;20950;-76
2023/11/01 07:24:38;;;;;;;6.13;1.30;;;10.60;99.90;;;;;;4225956;28;20277;-76
2023/11/01 07:26:40;;;;;;;3.90;1.10;;;10.60;99.90;;;;;;4225549;28;20197;-76
2023/11/01 07:28:42;;;;;;;4.00;1.10;;;10.70;99.90;;;;;;4218775;28;20734;-76
2023/11/01 07:30:46;;;;;;;4.50;1.23;;;10.80;99.90;;;;;;4220438;27;20212;-76
2023/11/01 07:32:47;;;;;;;4.10;1.10;;;10.80;99.90;;;;;;4225274;28;20295;-76
2023/11/01 07:34:51;;;;;;;2.80;1.40;;;10.80;99.90;;;;;;4222437;27;20233;-76
2023/11/01 07:36:53;;;;;;;5.47;2.37;;;10.90;99.90;;;;;;4228833;27;20584;-76
2023/11/01 07:38:55;;;;;;;5.13;1.67;;;10.90;99.90;;;;;;4228919;28;20204;-76
2023/11/01 07:40:57;;;;;;;3.23;1.23;;;11.00;99.90;;;;;;4217668;28;20215;-77
2023/11/01 07:42:59;;;;;;;2.50;1.20;;;11.00;99.90;;;;;;4224843;28;20736;-76
2023/11/01 07:45:01;;;;;;;3.77;1.20;;;11.00;99.90;;;;;;4221804;27;20259;-77
2023/11/01 07:47:03;;;;;;;4.57;1.60;;;11.00;99.90;;;;;;4216253;28;20262;-76
2023/11/01 07:49:05;;;;;;;1.93;1.10;;;11.10;99.90;;;;;;4229029;27;20216;-76
2023/11/01 07:51:08;;;;;;;4.43;1.07;;;11.10;99.90;;;;;;4226105;28;20616;-77
2023/11/01 07:53:10;;;;;;;4.60;1.40;;;11.20;99.90;;;;;;4227716;28;20788;-76
2023/11/01 07:55:12;;;;;;;5.17;1.27;;;11.20;99.90;;;;;;4227407;28;20225;-77
2023/11/01 07:57:14;;;;;;;2.00;1.10;;;11.30;99.90;;;;;;4222322;28;20239;-76
2023/11/01 07:59:15;;;;;;;1.90;1.10;;;11.30;99.90;;;;;;4226781;27;20220;-76
2023/11/01 08:01:17;;;;;;;3.73;1.20;;;11.30;99.90;;;;;;4221877;28;20233;-76
2023/11/01 08:03:19;;;;;;;5.27;1.70;;;11.40;99.90;;;;;;4220642;28;20286;-77
2023/11/01 08:05:21;;;;;;;2.17;1.00;;;11.40;99.90;;;;;;4224225;28;20247;-76
2023/11/01 08:07:25;;;;;;;1.70;0.90;;;11.50;99.90;;;;;;4219995;28;20258;-77
2023/11/01 08:09:27;;;;;;;7.03;1.20;;;11.50;99.90;;;;;;4225391;28;20255;-76
2023/11/01 08:11:28;;;;;;;1.20;0.90;;;11.80;99.90;;;;;;4225452;28;20211;-77
2023/11/01 08:13:30;;;;;;;6.83;1.03;;;11.70;99.90;;;;;;4228543;28;20227;-77
2023/11/01 08:15:33;;;;;;;2.53;1.13;;;11.70;99.90;;;;;;4216803;28;20207;-77
2023/11/01 08:17:35;;;;;;;2.97;0.93;;;11.70;99.90;;;;;;4228772;28;20274;-77
2023/11/01 08:19:36;;;;;;;2.10;0.87;;;11.80;99.90;;;;;;4217451;28;20217;-76
2023/11/01 08:21:38;;;;;;;3.13;0.93;;;11.80;99.90;;;;;;4221843;28;20202;-76
2023/11/01 08:23:41;;;;;;;2.83;1.07;;;11.80;99.90;;;;;;4220052;28;20218;-76
2023/11/01 08:25:43;;;;;;;4.17;1.20;;;11.90;99.90;;;;;;4219600;28;20206;-76
2023/11/01 08:27:45;;;;;;;1.50;0.90;;;12.00;99.90;;;;;;4219329;28;20857;-77
2023/11/01 08:29:47;;;;;;;2.67;1.00;;;12.00;99.90;;;;;;4225019;28;20205;-78
2023/11/01 08:31:50;;;;;;;4.57;1.10;;;12.00;99.90;;;;;;4216382;28;20200;-81
2023/11/01 08:33:52;;;;;;;5.23;1.00;;;12.10;99.90;;;;;;4218938;28;20241;-77
2023/11/01 08:35:58;;;;;;;2.03;1.07;;;12.20;99.90;;;;;;4228054;28;20202;-78
2023/11/01 08:38:02;;;;;;;1.33;1.03;;;12.20;99.90;;;;;;4225812;28;20266;-77
2023/11/01 08:40:06;;;;;;;2.07;1.00;;;12.20;99.90;;;;;;4224973;28;20259;-77
2023/11/01 08:42:08;;;;;;;1.43;0.87;;;12.20;99.90;;;;;;4224800;28;20660;-78
2023/11/01 08:44:10;;;;;;;1.97;1.00;;;12.30;99.90;;;;;;4229686;28;20231;-78
2023/11/01 08:46:13;;;;;;;1.73;0.90;;;12.30;99.90;;;;;;4223805;27;20262;-77
2023/11/01 08:48:16;;;;;;;1.90;1.00;;;12.40;99.90;;;;;;4227499;27;20207;-78
2023/11/01 08:50:18;;;;;;;3.33;0.80;;;12.40;99.90;;;;;;4227539;27;20678;-78
2023/11/01 08:52:20;;;;;;;3.07;1.07;;;12.50;99.90;;;;;;4225631;27;20208;-77
2023/11/01 08:54:24;;;;;;;2.40;0.70;;;12.50;99.90;;;;;;4223823;28;20230;-78
2023/11/01 08:56:28;;;;;;;1.63;0.67;;;12.50;99.90;;;;;;4225153;28;20215;-78
2023/11/01 08:58:30;;;;;;;2.17;0.97;;;12.50;99.90;;;;;;4219110;28;20732;-78
2023/11/01 09:00:32;;;;;;;2.63;1.10;;;12.50;99.90;;;;;;4221496;28;20207;-78
2023/11/01 09:02:33;;;;;;;2.77;1.00;;;12.50;99.90;;;;;;4226085;28;20198;-77
2023/11/01 09:04:35;;;;;;;1.53;0.80;;;12.50;99.90;;;;;;4228585;27;20253;-78
2023/11/01 09:06:37;;;;;;;2.13;0.90;;;12.60;99.90;;;;;;4226669;27;20253;-77
2023/11/01 09:08:38;;;;;;;2.50;0.80;;;12.60;99.90;;;;;;4223071;28;20655;-77
2023/11/01 09:10:40;;;;;;;2.17;0.70;;;12.60;99.90;;;;;;4225283;28;20192;-78
2023/11/01 09:12:43;;;;;;;1.80;0.80;;;12.60;99.90;;;;;;4223242;28;20210;-77
2023/11/01 09:14:46;;;;;;;1.40;0.80;;;12.70;99.90;;;;;;4224489;27;20224;-78
2023/11/01 09:16:48;;;;;;;1.83;0.80;;;12.60;99.90;;;;;;4222716;27;20222;-78
2023/11/01 09:18:50;;;;;;;1.83;0.70;;;12.70;99.90;;;;;;4226312;27;20869;-78
2023/11/01 09:20:52;;;;;;;1.33;0.67;;;12.70;99.90;;;;;;4223950;27;20193;-78
2023/11/01 09:22:53;;;;;;;1.10;0.70;;;12.70;99.90;;;;;;4225619;27;20232;-77
2023/11/01 09:24:55;;;;;;;0.93;0.60;;;12.70;99.90;;;;;;4224008;27;20203;-77
2023/11/01 09:26:56;;;;;;;2.07;0.73;;;12.70;99.90;;;;;;4229458;27;20192;-77
2023/11/01 09:29:00;;;;;;;1.83;0.60;;;12.70;99.90;;;;;;4227210;27;20367;-77
2023/11/01 09:31:03;;;;;;;3.40;0.70;;;12.80;99.90;;;;;;4225121;27;20211;-77
2023/11/01 09:33:05;;;;;;;0.70;0.50;;;12.70;99.90;;;;;;4227940;28;20209;-78
2023/11/01 09:35:08;;;;;;;2.93;0.80;;;12.80;99.90;;;;;;4224691;27;20198;-78
2023/11/01 09:37:09;;;;;;;1.97;0.80;;;12.80;99.90;;;;;;4220064;28;20315;-77
2023/11/01 09:39:11;;;;;;;2.33;0.80;;;12.70;99.90;;;;;;4222489;27;20197;-77
2023/11/01 09:41:18;;;;;;;2.03;0.80;;;12.80;99.90;;;;;;4224676;28;20229;-77
2023/11/01 09:43:22;;;;;;;1.97;0.80;;;12.80;99.90;;;;;;4227503;27;20224;-77
2023/11/01 09:45:25;;;;;;;2.70;1.40;;;12.80;99.90;;;;;;4223951;27;20200;-77
2023/11/01 09:47:28;;;;;;;2.73;1.70;;;12.90;99.90;;;;;;4228277;28;20692;-78
2023/11/01 09:49:30;;;;;;;2.27;0.87;;;12.90;99.90;;;;;;4223324;27;20209;-78
2023/11/01 09:51:33;;;;;;;2.63;0.90;;;12.90;99.90;;;;;;4220678;28;20604;-77
2023/11/01 09:53:36;;;;;;;5.23;0.97;;;12.90;99.90;;;;;;4226491;27;20238;-78
2023/11/01 09:55:38;;;;;;;2.00;0.80;;;12.90;99.90;;;;;;4230230;27;20210;-77
2023/11/01 09:57:43;;;;;;;2.50;0.83;;;12.90;99.90;;;;;;4223403;27;20257;-77
2023/11/01 09:59:44;;;;;;;1.53;0.80;;;12.90;99.90;;;;;;4229782;27;20259;-77
2023/11/01 10:01:48;;;;;;;2.67;0.97;;;12.80;99.90;;;;;;4221896;27;20204;-77
2023/11/01 10:03:49;;;;;;;3.40;1.00;;;12.80;99.90;;;;;;4225742;27;20233;-77
2023/11/01 10:05:51;;;;;;;8.73;1.30;;;12.80;99.90;;;;;;4230177;27;20275;-77
2023/11/01 10:07:52;;;;;;;1.73;1.00;;;12.80;99.90;;;;;;4225123;27;20209;-78
2023/11/01 10:09:55;;;;;;;4.50;1.00;;;12.80;99.90;;;;;;4223506;28;20779;-78
2023/11/01 10:11:58;;;;;;;1.43;0.73;;;12.90;99.90;;;;;;4225247;27;20255;-77
2023/11/01 10:14:00;;;;;;;1.87;0.93;;;12.90;99.90;;;;;;4222753;27;20223;-77
2023/11/01 10:16:02;;;;;;;3.17;1.00;;;13.00;99.90;;;;;;4229179;27;20228;-77
2023/11/01 10:18:06;;;;;;;1.37;0.80;;;13.00;99.90;;;;;;4229804;27;20232;-77
2023/11/01 10:20:21;;;;;;;1.63;1.27;;;13.10;99.90;;;;;;4220987;27;20252;-76
2023/11/01 10:22:24;;;;;;;2.03;1.03;;;13.20;99.90;;;;;;4220652;27;20200;-77
2023/11/01 10:24:26;;;;;;;3.87;1.03;;;13.30;99.90;;;;;;4229873;27;20223;-76
2023/11/01 10:26:29;;;;;;;1.63;1.00;;;13.40;99.90;;;;;;4225048;28;20211;-77
2023/11/01 10:28:33;;;;;;;2.47;0.73;;;13.40;99.90;;;;;;4223785;28;20212;-78
2023/11/01 10:30:36;;;;;;;1.30;0.70;;;13.50;99.90;;;;;;4224758;28;20201;-79
2023/11/01 10:32:38;;;;;;;1.20;0.80;;;13.50;99.90;;;;;;4230842;27;20201;-79
2023/11/01 10:34:42;;;;;;;2.20;0.87;;;13.50;99.90;;;;;;4225870;28;20231;-79
2023/11/01 10:36:51;;;;;;;1.70;0.90;;;13.60;99.90;;;;;;4223915;27;20250;-80
2023/11/01 10:38:54;;;;;;;1.47;0.80;;;13.70;99.90;;;;;;4220971;28;20728;-78